• Join FlightAware (Why Join?)
  • Login
  • US Flag 
01:29PM EDT


 

Airport Tracker/Info


-or-


 

Live Flight TrackerFlight Track Log ✈ AAY748 ✈ 14-Feb-2014 ✈ KSFB - KSBN

Flight Track Log - Related Links

Times and Time Zones

All times are in EST time to prevent confusion due to time zone crossing. See the AAY748 flight status page for this flight to view local times or setup timezone preferences in your user account.

Time Position Orientation Groundspeed Altitude Reporting Facility
EST Latitude Longitude Course Direction KTS MPH feet Rate Location/Type
02:34PM 28.7833 -81.2667 270° West 201 231 1,000  Level Orlando TRACON
02:35PM 28.7833 -81.3333 270° West 214 246 3,300 2,460 Climbing Orlando TRACON
02:37PM 28.8756 -81.3728 339° North 289 333 7,200 2,400 Climbing Jacksonville Center
02:37PM 28.9256 -81.3694 North 298 343 8,400 2,220 Climbing Jacksonville Center
02:38PM 29.0092 -81.3778 355° North 306 352 10,800 2,100 Climbing Jacksonville Center
02:39PM 29.0992 -81.3956 350° North 322 371 12,600 1,740 Climbing Jacksonville Center
02:40PM 29.1997 -81.4225 347° North 362 417 14,300 1,800 Climbing Jacksonville Center
02:41PM 29.2958 -81.4494 346° North 376 433 16,300 1,920 Climbing Jacksonville Center
02:42PM 29.4089 -81.4767 348° North 393 452 18,200 1,800 Climbing Jacksonville Center
02:43PM 29.5242 -81.5058 348° North 404 465 20,000 1,860 Climbing Jacksonville Center
02:44PM 29.6414 -81.5353 348° North 417 480 22,000 1,740 Climbing Jacksonville Center
02:45PM 29.7586 -81.5672 347° North 423 487 23,500 1,380 Climbing Jacksonville Center
02:46PM 29.8819 -81.5967 348° North 435 501 24,800 900 Climbing Jacksonville Center
02:47PM 30.0036 -81.6333 345° North 447 514 25,400 1,260 Climbing Jacksonville Center
02:48PM 30.1269 -81.6606 349° North 447 514 27,400 1,680 Climbing Jacksonville Center
02:49PM 30.2483 -81.6975 345° North 447 514 28,800 1,500 Climbing Jacksonville Center
02:50PM 30.3803 -81.7247 350° North 444 511 30,500 1,260 Climbing Jacksonville Center
02:51PM 30.4892 -81.7594 345° North 427 491 31,400 1,080 Climbing Jacksonville Center
02:52PM 30.6231 -81.7942 347° North 433 498 32,700 720 Climbing Jacksonville Center
02:53PM 30.7319 -81.8389 341° North 427 491 32,900 120 Climbing Jacksonville Center
02:54PM 30.8161 -81.9178 321° Northwest 399 459 33,000  Climbing Jacksonville Center
02:55PM 30.9147 -81.9894 328° Northwest 406 467 33,000  Level Jacksonville Center
02:56PM 31.0278 -82.0319 342° North 411 473 33,000  Level Jacksonville Center
02:57PM 31.1408 -82.0744 342° North 426 490 33,000  Level Jacksonville Center
02:58PM 31.2497 -82.1197 340° North 426 490 33,000  Level Jacksonville Center
02:59PM 31.3669 -82.1603 344° North 426 490 33,000  Level Jacksonville Center
03:00PM 31.4778 -82.2031 342° North 421 484 33,000  Level Jacksonville Center
03:01PM 31.5928 -82.2461 342° North 429 494 33,000  Level Jacksonville Center
03:04PM 31.9106 -82.3581 343° North 438 504 33,000  Level Atlanta Center
03:05PM 32.0258 -82.4000 343° North 438 504 33,000  Level Atlanta Center
03:06PM 32.1350 -82.4447 341° North 432 497 33,000  Level Atlanta Center
03:07PM 32.2461 -82.4819 344° North 425 489 33,000 300 Level Atlanta Center
03:08PM 32.3572 -82.5217 343° North 420 483 33,700 480 Climbing Atlanta Center
03:09PM 32.4683 -82.5667 341° North 420 483 34,000 120 Climbing Atlanta Center
03:10PM 32.5814 -82.6067 343° North 425 489 34,000  Level Atlanta Center
03:11PM 32.6906 -82.6517 341° North 425 489 34,000  Level Atlanta Center
03:12PM 32.8078 -82.6894 345° North 425 489 34,000  Level Atlanta Center
03:13PM 32.9211 -82.7372 341° North 425 489 34,000  Level Atlanta Center
03:14PM 33.0364 -82.7775 344° North 425 489 34,000  Level Atlanta Center
03:15PM 33.1453 -82.8256 340° North 425 489 34,000  Level Atlanta Center
03:16PM 33.2625 -82.8611 346° North 425 489 34,000  Level Atlanta Center
03:17PM 33.3758 -82.9119 339° North 425 489 34,000  Level Atlanta Center
03:18PM 33.4825 -82.9478 344° North 430 495 34,000  Level Atlanta Center
03:19PM 33.5956 -82.9939 341° North 430 495 34,000  Level Atlanta Center
03:20PM 33.7086 -83.0350 343° North 425 489 34,000  Level Atlanta Center
03:21PM 33.8281 -83.0786 343° North 430 495 34,000  Level Atlanta Center
03:22PM 33.9453 -83.1197 344° North 435 501 34,000  Level Atlanta Center
03:23PM 34.0583 -83.1661 341° North 435 501 34,000  Level Atlanta Center
03:24PM 34.1797 -83.2128 342° North 440 506 34,000  Level Atlanta Center
03:25PM 34.2906 -83.2569 342° North 434 499 34,000  Level Atlanta Center
03:26PM 34.4078 -83.3011 343° North 434 499 34,000  Level Atlanta Center
03:27PM 34.5333 -83.3503 342° North 429 494 34,000  Level Atlanta Center
03:28PM 34.6503 -83.3922 344° North 429 494 34,000  Level Atlanta Center
03:29PM 34.7633 -83.4394 341° North 429 494 34,000  Level Atlanta Center
03:30PM 34.8803 -83.4869 342° North 429 494 34,000  Level Atlanta Center
03:31PM 34.9953 -83.5317 342° North 429 494 34,000  Level Atlanta Center
03:32PM 35.1081 -83.5767 342° North 429 494 34,000  Level Atlanta Center
03:33PM 35.2169 -83.6244 340° North 423 487 34,000  Level Atlanta Center
03:34PM 35.3297 -83.6644 344° North 423 487 34,000  Level Atlanta Center
03:35PM 35.4383 -83.7125 340° North 423 487 34,000  Level Atlanta Center
03:36PM 35.5511 -83.7581 342° North 423 487 34,000  Level Atlanta Center
03:37PM 35.6597 -83.8036 341° North 423 487 34,000  Level Atlanta Center
03:38PM 35.7722 -83.8392 346° North 423 487 34,000  Level Atlanta Center
03:40PM 35.9611 -83.9011 345° North 412 474 34,000  Level Indianapolis Center
03:41PM 36.0764 -83.9175 353° North 416 479 34,000  Level Indianapolis Center
03:42PM 36.2131 -83.9417 352° North 416 479 34,000  Level Indianapolis Center
03:43PM 36.3297 -83.9575 354° North 420 483 34,000  Level Indianapolis Center
03:44PM 36.4486 -83.9767 353° North 427 491 34,000  Level Indianapolis Center
03:45PM 36.5742 -83.9956 353° North 431 496 34,000  Level Indianapolis Center
03:46PM 36.6933 -84.0114 354° North 429 494 34,000  Level Indianapolis Center
03:47PM 36.8128 -84.0308 353° North 430 495 34,000  Level Indianapolis Center
03:48PM 36.9317 -84.0469 354° North 428 493 34,000  Level Indianapolis Center
03:49PM 37.0692 -84.0694 353° North 425 489 34,000  Level Indianapolis Center
03:50PM 37.1881 -84.0828 355° North 427 491 34,000  Level Indianapolis Center
03:52PM 37.3044 -84.1047 351° North 422 486 34,000  Level Indianapolis Center
03:53PM 37.4228 -84.1172 355° North 423 487 34,000  Level Indianapolis Center
03:54PM 37.5381 -84.1408 351° North 419 482 34,000  Level Indianapolis Center
03:55PM 37.6558 -84.1547 355° North 421 484 34,000  Level Indianapolis Center
03:56PM 37.7906 -84.1800 352° North 419 482 34,000  Level Indianapolis Center
03:57PM 37.9078 -84.1958 354° North 421 484 34,000  Level Indianapolis Center
03:58PM 38.0242 -84.2150 353° North 420 483 34,000  Level Indianapolis Center
03:59PM 38.1456 -84.2292 355° North 432 497 34,000 -900 Level Indianapolis Center
04:00PM 38.2625 -84.2478 353° North 426 490 32,200 -1,020 Descending Indianapolis Center
04:01PM 38.3825 -84.2686 352° North 432 497 32,000 -120 Descending Indianapolis Center
04:02PM 38.5244 -84.2878 354° North 436 502 32,000  Level Indianapolis Center
04:03PM 38.6453 -84.3097 352° North 437 503 32,000  Level Indianapolis Center
04:04PM 38.7572 -84.3544 343° North 424 488 32,000  Level Indianapolis Center
04:05PM 38.8742 -84.3914 346° North 429 494 32,000  Level Indianapolis Center
04:06PM 38.9883 -84.4358 343° North 429 494 32,000  Level Indianapolis Center
04:07PM 39.1061 -84.4733 346° North 433 498 32,000 -240 Level Indianapolis Center
04:08PM 39.2200 -84.5222 342° North 430 495 31,600 -780 Descending Indianapolis Center
04:09PM 39.3381 -84.5608 346° North 434 499 30,500 -1,080 Descending Indianapolis Center
04:10PM 39.4761 -84.6186 342° North 434 499 29,400 -1,020 Descending Indianapolis Center
04:11PM 39.5969 -84.6578 346° North 440 506 28,400 -1,020 Descending Indianapolis Center
04:12PM 39.7139 -84.7067 342° North 440 506 27,400 -1,020 Descending Indianapolis Center
04:13PM 39.8317 -84.7453 346° North 438 504 26,400 -1,020 Descending Indianapolis Center
04:14PM 39.9436 -84.7944 341° North 430 495 25,400 -1,020 Descending Indianapolis Center
04:15PM 40.0594 -84.8306 347° North 425 489 24,400 -1,020 Descending Indianapolis Center
04:16PM 40.1672 -84.8828 340° North 419 482 23,300 -780 Descending Indianapolis Center
04:17PM 40.2558 -84.9686 324° Northwest 379 436 22,900 -780 Descending Indianapolis Center
04:18PM 40.3408 -85.0436 326° Northwest 374 430 21,700 -1,380 Descending Indianapolis Center
04:19PM 40.4375 -85.1400 323° Northwest 368 423 20,100 -780 Descending Indianapolis Center
04:21PM 40.5392 -85.2261 327° Northwest 369 425 20,000 -60 Descending Chicago Center
04:22PM 40.6225 -85.3039 325° Northwest 368 423 20,000  Level Chicago Center
04:23PM 40.7156 -85.3858 326° Northwest 367 422 20,000 -360 Level Chicago Center
04:24PM 40.7975 -85.4650 324° Northwest 364 419 19,300 -1,140 Descending Chicago Center
04:25PM 40.8831 -85.5408 326° Northwest 371 427 17,700 -1,440 Descending Chicago Center
04:26PM 40.9642 -85.6231 323° Northwest 366 421 16,400 -1,320 Descending Chicago Center
04:27PM 41.0503 -85.6950 328° Northwest 366 421 15,000 -1,500 Descending Chicago Center
04:28PM 41.1422 -85.7831 324° Northwest 342 394 13,300 -1,560 Descending Chicago Center
04:29PM 41.2294 -85.8278 339° North 336 387 11,800 -1,140 Descending Chicago Center
04:30PM 41.3083 -85.8758 335° Northwest 311 358 11,000 -420 Descending Chicago Center
04:31PM 41.3794 -85.9161 337° Northwest 281 323 11,000 -420 Level Chicago Center
04:32PM 41.4503 -85.9517 339° North 272 313 10,200 -1,440 Descending Chicago Center
04:33PM 41.5208 -85.9872 339° North 270 311 8,100 -2,160 Descending Chicago Center
04:34PM 41.5889 -86.0253 337° Northwest 264 304 5,800 -2,040 Descending Chicago Center
04:35PM 41.6675 -86.0633 340° North 257 296 4,000 -1,440 Descending Chicago Center
04:36PM 41.6994 -86.1206 307° West 221 254 2,900 -780 Descending Chicago Center
04:37PM 41.7058 -86.1883 277° West 198 228 2,400 -600 Descending Chicago Center
04:38PM 41.7044 -86.2386 268° West 162 186 1,700 -540 Descending Chicago Center
04:39PM 41.7031 -86.2944 268° West 147 169 1,300 -420 Descending Chicago Center